sensor_id;sensor_type;location;lat;lon;timestamp;temperature;humidity
34279;DHT22;20538;51.528;9.942;2023-06-14T00:01:28;16.50;88.70
34279;DHT22;20538;51.528;9.942;2023-06-14T00:03:54;16.40;89.30
34279;DHT22;20538;51.528;9.942;2023-06-14T00:06:21;16.40;90.00
34279;DHT22;20538;51.528;9.942;2023-06-14T00:08:46;16.20;90.20
34279;DHT22;20538;51.528;9.942;2023-06-14T00:11:12;16.30;90.50
34279;DHT22;20538;51.528;9.942;2023-06-14T00:13:38;16.20;90.50
34279;DHT22;20538;51.528;9.942;2023-06-14T00:16:03;16.20;90.90
34279;DHT22;20538;51.528;9.942;2023-06-14T00:18:29;16.10;91.00
34279;DHT22;20538;51.528;9.942;2023-06-14T00:20:55;16.10;91.30
34279;DHT22;20538;51.528;9.942;2023-06-14T00:23:21;16.10;91.80
34279;DHT22;20538;51.528;9.942;2023-06-14T00:25:47;16.10;91.70
34279;DHT22;20538;51.528;9.942;2023-06-14T00:28:13;16.10;91.80
34279;DHT22;20538;51.528;9.942;2023-06-14T00:30:39;16.00;91.90
34279;DHT22;20538;51.528;9.942;2023-06-14T00:33:05;16.00;92.10
34279;DHT22;20538;51.528;9.942;2023-06-14T00:35:31;16.10;92.20
34279;DHT22;20538;51.528;9.942;2023-06-14T00:37:57;16.00;92.40
34279;DHT22;20538;51.528;9.942;2023-06-14T00:40:23;16.00;92.60
34279;DHT22;20538;51.528;9.942;2023-06-14T00:42:49;15.90;92.80
34279;DHT22;20538;51.528;9.942;2023-06-14T00:45:14;15.90;92.90
34279;DHT22;20538;51.528;9.942;2023-06-14T00:47:41;15.80;93.20
34279;DHT22;20538;51.528;9.942;2023-06-14T00:50:08;15.80;93.40
34279;DHT22;20538;51.528;9.942;2023-06-14T00:52:34;15.70;93.60
34279;DHT22;20538;51.528;9.942;2023-06-14T00:55:00;15.50;93.90
34279;DHT22;20538;51.528;9.942;2023-06-14T00:57:27;15.60;94.20
34279;DHT22;20538;51.528;9.942;2023-06-14T00:59:52;15.50;94.30
34279;DHT22;20538;51.528;9.942;2023-06-14T01:02:20;15.50;94.50
34279;DHT22;20538;51.528;9.942;2023-06-14T01:04:48;15.50;94.70
34279;DHT22;20538;51.528;9.942;2023-06-14T01:15:47;15.30;96.00
34279;DHT22;20538;51.528;9.942;2023-06-14T01:18:13;15.20;96.00
34279;DHT22;20538;51.528;9.942;2023-06-14T01:20:46;15.20;96.20
34279;DHT22;20538;51.528;9.942;2023-06-14T01:23:19;15.20;96.50
34279;DHT22;20538;51.528;9.942;2023-06-14T01:25:46;15.10;96.70
34279;DHT22;20538;51.528;9.942;2023-06-14T01:28:13;15.00;97.00
34279;DHT22;20538;51.528;9.942;2023-06-14T01:30:43;15.00;97.20
34279;DHT22;20538;51.528;9.942;2023-06-14T01:33:19;14.90;97.40
34279;DHT22;20538;51.528;9.942;2023-06-14T01:35:48;14.90;97.70
34279;DHT22;20538;51.528;9.942;2023-06-14T01:38:15;14.80;97.90
34279;DHT22;20538;51.528;9.942;2023-06-14T01:40:46;14.70;98.50
34279;DHT22;20538;51.528;9.942;2023-06-14T01:43:14;14.60;98.40
34279;DHT22;20538;51.528;9.942;2023-06-14T01:45:44;14.60;98.80
34279;DHT22;20538;51.528;9.942;2023-06-14T01:48:11;14.60;98.90
34279;DHT22;20538;51.528;9.942;2023-06-14T01:50:37;14.70;99.10
34279;DHT22;20538;51.528;9.942;2023-06-14T01:53:07;14.60;99.30
34279;DHT22;20538;51.528;9.942;2023-06-14T01:55:32;14.50;99.40
34279;DHT22;20538;51.528;9.942;2023-06-14T01:58:05;14.50;99.60
34279;DHT22;20538;51.528;9.942;2023-06-14T02:00:31;14.60;99.80
34279;DHT22;20538;51.528;9.942;2023-06-14T02:02:56;14.50;99.90
34279;DHT22;20538;51.528;9.942;2023-06-14T02:05:22;14.60;99.90
34279;DHT22;20538;51.528;9.942;2023-06-14T02:07:48;14.50;99.90
34279;DHT22;20538;51.528;9.942;2023-06-14T02:10:14;14.40;99.90
34279;DHT22;20538;51.528;9.942;2023-06-14T02:12:40;14.40;99.90
34279;DHT22;20538;51.528;9.942;2023-06-14T02:15:07;14.30;99.90
34279;DHT22;20538;51.528;9.942;2023-06-14T02:17:33;14.30;99.90
34279;DHT22;20538;51.528;9.942;2023-06-14T02:19:59;14.30;99.90
34279;DHT22;20538;51.528;9.942;2023-06-14T02:22:26;14.20;99.90
34279;DHT22;20538;51.528;9.942;2023-06-14T02:24:51;14.20;99.90
34279;DHT22;20538;51.528;9.942;2023-06-14T02:27:18;14.20;99.90
34279;DHT22;20538;51.528;9.942;2023-06-14T02:29:43;14.10;99.90
34279;DHT22;20538;51.528;9.942;2023-06-14T02:32:09;14.20;99.90
34279;DHT22;20538;51.528;9.942;2023-06-14T02:34:35;14.20;99.90
34279;DHT22;20538;51.528;9.942;2023-06-14T02:37:01;14.10;99.90
34279;DHT22;20538;51.528;9.942;2023-06-14T02:39:29;14.20;99.90
34279;DHT22;20538;51.528;9.942;2023-06-14T02:41:54;14.20;99.90
34279;DHT22;20538;51.528;9.942;2023-06-14T02:44:24;14.10;99.90
34279;DHT22;20538;51.528;9.942;2023-06-14T02:46:51;14.20;99.90
34279;DHT22;20538;51.528;9.942;2023-06-14T02:49:16;14.10;99.90
34279;DHT22;20538;51.528;9.942;2023-06-14T02:51:42;14.10;99.90
34279;DHT22;20538;51.528;9.942;2023-06-14T02:54:07;14.00;99.90
34279;DHT22;20538;51.528;9.942;2023-06-14T02:56:33;14.00;99.90
34279;DHT22;20538;51.528;9.942;2023-06-14T02:58:59;13.90;99.90
34279;DHT22;20538;51.528;9.942;2023-06-14T03:01:26;13.90;99.90
34279;DHT22;20538;51.528;9.942;2023-06-14T03:04:01;13.90;99.90
34279;DHT22;20538;51.528;9.942;2023-06-14T03:06:28;13.80;99.90
34279;DHT22;20538;51.528;9.942;2023-06-14T03:08:55;13.90;99.90
34279;DHT22;20538;51.528;9.942;2023-06-14T03:11:22;13.80;99.90
34279;DHT22;20538;51.528;9.942;2023-06-14T03:13:48;13.80;99.90
34279;DHT22;20538;51.528;9.942;2023-06-14T03:16:13;13.80;99.90
34279;DHT22;20538;51.528;9.942;2023-06-14T03:18:39;13.80;99.90
34279;DHT22;20538;51.528;9.942;2023-06-14T03:21:04;13.80;99.90
34279;DHT22;20538;51.528;9.942;2023-06-14T03:23:31;13.80;99.90
34279;DHT22;20538;51.528;9.942;2023-06-14T03:25:57;13.80;99.90
34279;DHT22;20538;51.528;9.942;2023-06-14T03:28:23;13.80;99.90
34279;DHT22;20538;51.528;9.942;2023-06-14T03:30:48;13.70;99.90
34279;DHT22;20538;51.528;9.942;2023-06-14T03:33:14;13.70;99.90
34279;DHT22;20538;51.528;9.942;2023-06-14T03:35:40;13.70;99.90
34279;DHT22;20538;51.528;9.942;2023-06-14T03:38:06;13.60;99.90
34279;DHT22;20538;51.528;9.942;2023-06-14T03:40:32;13.60;99.90
34279;DHT22;20538;51.528;9.942;2023-06-14T03:42:58;13.60;99.90
34279;DHT22;20538;51.528;9.942;2023-06-14T03:45:23;13.60;99.90
34279;DHT22;20538;51.528;9.942;2023-06-14T03:47:49;13.70;99.90
34279;DHT22;20538;51.528;9.942;2023-06-14T03:50:16;13.80;99.90
34279;DHT22;20538;51.528;9.942;2023-06-14T03:52:42;13.90;99.90
34279;DHT22;20538;51.528;9.942;2023-06-14T03:55:09;14.00;99.90
34279;DHT22;20538;51.528;9.942;2023-06-14T03:57:35;14.00;99.90
34279;DHT22;20538;51.528;9.942;2023-06-14T04:00:01;13.90;99.90
34279;DHT22;20538;51.528;9.942;2023-06-14T04:02:26;13.90;99.90
34279;DHT22;20538;51.528;9.942;2023-06-14T04:04:54;13.70;99.90
34279;DHT22;20538;51.528;9.942;2023-06-14T04:07:20;13.70;99.90
34279;DHT22;20538;51.528;9.942;2023-06-14T04:09:46;13.60;99.90
34279;DHT22;20538;51.528;9.942;2023-06-14T04:12:12;13.50;99.90
34279;DHT22;20538;51.528;9.942;2023-06-14T04:14:39;13.50;99.90
34279;DHT22;20538;51.528;9.942;2023-06-14T04:17:05;13.40;99.90
34279;DHT22;20538;51.528;9.942;2023-06-14T04:19:31;13.40;99.90
34279;DHT22;20538;51.528;9.942;2023-06-14T04:21:58;13.50;99.90
34279;DHT22;20538;51.528;9.942;2023-06-14T04:24:27;13.50;99.90
34279;DHT22;20538;51.528;9.942;2023-06-14T04:26:58;13.60;99.90
34279;DHT22;20538;51.528;9.942;2023-06-14T04:29:24;13.60;99.90
34279;DHT22;20538;51.528;9.942;2023-06-14T04:31:53;13.70;99.90
34279;DHT22;20538;51.528;9.942;2023-06-14T04:34:20;14.00;99.90
34279;DHT22;20538;51.528;9.942;2023-06-14T04:36:47;15.80;99.90
34279;DHT22;20538;51.528;9.942;2023-06-14T04:39:19;17.40;99.90
34279;DHT22;20538;51.528;9.942;2023-06-14T04:41:44;18.60;99.90
34279;DHT22;20538;51.528;9.942;2023-06-14T04:44:10;18.50;99.90
34279;DHT22;20538;51.528;9.942;2023-06-14T04:46:38;19.00;99.90
34279;DHT22;20538;51.528;9.942;2023-06-14T04:49:15;19.90;99.90
34279;DHT22;20538;51.528;9.942;2023-06-14T04:51:45;20.50;99.30
34279;DHT22;20538;51.528;9.942;2023-06-14T04:54:11;21.10;98.20
34279;DHT22;20538;51.528;9.942;2023-06-14T04:56:40;20.90;97.60
34279;DHT22;20538;51.528;9.942;2023-06-14T04:59:07;21.00;96.90
34279;DHT22;20538;51.528;9.942;2023-06-14T05:01:34;20.90;95.80
34279;DHT22;20538;51.528;9.942;2023-06-14T05:04:00;20.20;96.80
34279;DHT22;20538;51.528;9.942;2023-06-14T05:06:25;21.00;96.30
34279;DHT22;20538;51.528;9.942;2023-06-14T05:08:54;21.70;96.00
34279;DHT22;20538;51.528;9.942;2023-06-14T05:11:20;20.70;96.50
34279;DHT22;20538;51.528;9.942;2023-06-14T05:13:46;20.90;96.10
34279;DHT22;20538;51.528;9.942;2023-06-14T05:16:12;21.00;96.10
34279;DHT22;20538;51.528;9.942;2023-06-14T05:18:38;20.00;96.10
34279;DHT22;20538;51.528;9.942;2023-06-14T05:21:06;20.40;96.10
34279;DHT22;20538;51.528;9.942;2023-06-14T05:23:31;21.50;95.70
34279;DHT22;20538;51.528;9.942;2023-06-14T05:25:57;21.60;95.60
34279;DHT22;20538;51.528;9.942;2023-06-14T05:28:23;21.80;95.10
34279;DHT22;20538;51.528;9.942;2023-06-14T05:30:49;22.50;94.70
34279;DHT22;20538;51.528;9.942;2023-06-14T05:33:15;21.20;93.40
34279;DHT22;20538;51.528;9.942;2023-06-14T05:35:41;20.10;95.80
34279;DHT22;20538;51.528;9.942;2023-06-14T05:38:06;19.50;95.40
34279;DHT22;20538;51.528;9.942;2023-06-14T05:40:33;19.40;97.70
34279;DHT22;20538;51.528;9.942;2023-06-14T05:42:58;20.30;96.10
34279;DHT22;20538;51.528;9.942;2023-06-14T05:45:24;21.20;95.40
34279;DHT22;20538;51.528;9.942;2023-06-14T05:47:53;19.80;96.20
34279;DHT22;20538;51.528;9.942;2023-06-14T05:50:20;19.40;96.50
34279;DHT22;20538;51.528;9.942;2023-06-14T05:52:46;20.00;96.40
34279;DHT22;20538;51.528;9.942;2023-06-14T05:55:11;19.00;96.50
34279;DHT22;20538;51.528;9.942;2023-06-14T05:57:37;19.20;97.70
34279;DHT22;20538;51.528;9.942;2023-06-14T06:00:03;19.80;97.20
34279;DHT22;20538;51.528;9.942;2023-06-14T06:02:36;18.60;97.10
34279;DHT22;20538;51.528;9.942;2023-06-14T06:05:02;19.80;97.40
34279;DHT22;20538;51.528;9.942;2023-06-14T06:07:31;19.40;98.50
34279;DHT22;20538;51.528;9.942;2023-06-14T06:09:57;20.70;97.40
34279;DHT22;20538;51.528;9.942;2023-06-14T06:12:22;20.30;95.90
34279;DHT22;20538;51.528;9.942;2023-06-14T06:14:48;19.20;97.90
34279;DHT22;20538;51.528;9.942;2023-06-14T06:17:14;17.20;99.20
34279;DHT22;20538;51.528;9.942;2023-06-14T06:19:40;18.40;99.90
34279;DHT22;20538;51.528;9.942;2023-06-14T06:22:05;19.40;98.90
34279;DHT22;20538;51.528;9.942;2023-06-14T06:24:32;20.10;98.60
34279;DHT22;20538;51.528;9.942;2023-06-14T06:26:57;19.60;98.60
34279;DHT22;20538;51.528;9.942;2023-06-14T06:29:23;19.40;98.60
34279;DHT22;20538;51.528;9.942;2023-06-14T06:31:49;19.30;99.20
34279;DHT22;20538;51.528;9.942;2023-06-14T06:34:14;18.90;99.00
34279;DHT22;20538;51.528;9.942;2023-06-14T06:36:40;19.30;99.60
34279;DHT22;20538;51.528;9.942;2023-06-14T06:39:07;19.20;99.60
34279;DHT22;20538;51.528;9.942;2023-06-14T06:41:38;19.40;98.80
34279;DHT22;20538;51.528;9.942;2023-06-14T06:44:05;19.00;99.10
34279;DHT22;20538;51.528;9.942;2023-06-14T06:46:32;18.70;99.70
34279;DHT22;20538;51.528;9.942;2023-06-14T06:48:59;18.40;99.80
34279;DHT22;20538;51.528;9.942;2023-06-14T06:51:24;17.80;99.90
34279;DHT22;20538;51.528;9.942;2023-06-14T06:53:53;18.40;99.90
34279;DHT22;20538;51.528;9.942;2023-06-14T06:56:21;18.50;99.90
34279;DHT22;20538;51.528;9.942;2023-06-14T06:58:49;18.90;99.90
34279;DHT22;20538;51.528;9.942;2023-06-14T07:01:15;18.80;99.80
34279;DHT22;20538;51.528;9.942;2023-06-14T07:03:41;18.40;99.90
34279;DHT22;20538;51.528;9.942;2023-06-14T07:06:07;18.50;99.90
34279;DHT22;20538;51.528;9.942;2023-06-14T07:08:32;18.50;99.90
34279;DHT22;20538;51.528;9.942;2023-06-14T07:10:58;18.70;99.90
34279;DHT22;20538;51.528;9.942;2023-06-14T07:13:26;18.70;99.90
34279;DHT22;20538;51.528;9.942;2023-06-14T07:15:54;17.70;99.90
34279;DHT22;20538;51.528;9.942;2023-06-14T07:18:22;17.70;99.90
34279;DHT22;20538;51.528;9.942;2023-06-14T07:20:48;17.50;99.90
34279;DHT22;20538;51.528;9.942;2023-06-14T07:23:13;18.30;99.90
34279;DHT22;20538;51.528;9.942;2023-06-14T07:25:39;17.40;99.90
34279;DHT22;20538;51.528;9.942;2023-06-14T07:28:05;17.30;99.90
34279;DHT22;20538;51.528;9.942;2023-06-14T07:30:30;17.50;99.90
34279;DHT22;20538;51.528;9.942;2023-06-14T07:32:56;17.70;99.90
34279;DHT22;20538;51.528;9.942;2023-06-14T07:35:22;17.60;99.90
34279;DHT22;20538;51.528;9.942;2023-06-14T07:37:48;17.90;99.90
34279;DHT22;20538;51.528;9.942;2023-06-14T07:40:15;17.90;99.90
34279;DHT22;20538;51.528;9.942;2023-06-14T07:42:41;18.20;99.90
34279;DHT22;20538;51.528;9.942;2023-06-14T07:45:07;17.90;99.90
34279;DHT22;20538;51.528;9.942;2023-06-14T07:47:33;18.00;99.90
34279;DHT22;20538;51.528;9.942;2023-06-14T07:49:58;18.20;99.90
34279;DHT22;20538;51.528;9.942;2023-06-14T07:52:24;18.20;99.90
34279;DHT22;20538;51.528;9.942;2023-06-14T07:54:50;18.00;99.90
34279;DHT22;20538;51.528;9.942;2023-06-14T07:57:15;18.30;99.90
34279;DHT22;20538;51.528;9.942;2023-06-14T07:59:41;18.30;99.90
34279;DHT22;20538;51.528;9.942;2023-06-14T08:02:07;18.80;99.90
34279;DHT22;20538;51.528;9.942;2023-06-14T08:04:32;19.30;99.90
34279;DHT22;20538;51.528;9.942;2023-06-14T08:07:01;20.10;99.90
34279;DHT22;20538;51.528;9.942;2023-06-14T08:09:27;20.30;99.90
34279;DHT22;20538;51.528;9.942;2023-06-14T08:11:54;19.60;98.80
34279;DHT22;20538;51.528;9.942;2023-06-14T08:14:20;18.60;99.90
34279;DHT22;20538;51.528;9.942;2023-06-14T08:16:46;19.50;99.90
34279;DHT22;20538;51.528;9.942;2023-06-14T08:19:11;18.80;99.90
34279;DHT22;20538;51.528;9.942;2023-06-14T08:21:37;18.80;99.90
34279;DHT22;20538;51.528;9.942;2023-06-14T08:24:03;19.30;99.90
34279;DHT22;20538;51.528;9.942;2023-06-14T08:26:30;19.00;99.90
34279;DHT22;20538;51.528;9.942;2023-06-14T08:28:57;19.20;99.70
34279;DHT22;20538;51.528;9.942;2023-06-14T08:31:23;19.70;99.20
34279;DHT22;20538;51.528;9.942;2023-06-14T08:33:50;19.40;98.80
34279;DHT22;20538;51.528;9.942;2023-06-14T08:36:16;19.40;99.00
34279;DHT22;20538;51.528;9.942;2023-06-14T08:38:42;19.80;99.70
34279;DHT22;20538;51.528;9.942;2023-06-14T08:41:11;20.20;98.90
34279;DHT22;20538;51.528;9.942;2023-06-14T08:43:38;20.00;98.70
34279;DHT22;20538;51.528;9.942;2023-06-14T08:46:06;19.90;98.80
34279;DHT22;20538;51.528;9.942;2023-06-14T08:48:34;20.50;99.20
34279;DHT22;20538;51.528;9.942;2023-06-14T08:51:00;21.00;97.40
34279;DHT22;20538;51.528;9.942;2023-06-14T08:53:33;20.30;97.50
34279;DHT22;20538;51.528;9.942;2023-06-14T08:56:03;20.40;97.60
34279;DHT22;20538;51.528;9.942;2023-06-14T08:58:31;20.20;97.70
34279;DHT22;20538;51.528;9.942;2023-06-14T09:01:02;20.30;97.40
34279;DHT22;20538;51.528;9.942;2023-06-14T09:03:28;20.50;97.70
34279;DHT22;20538;51.528;9.942;2023-06-14T09:05:59;20.60;97.30
34279;DHT22;20538;51.528;9.942;2023-06-14T09:08:26;19.70;96.10
34279;DHT22;20538;51.528;9.942;2023-06-14T09:10:55;20.10;96.60
34279;DHT22;20538;51.528;9.942;2023-06-14T09:13:21;20.50;96.70
34279;DHT22;20538;51.528;9.942;2023-06-14T09:15:47;20.40;95.50
34279;DHT22;20538;51.528;9.942;2023-06-14T09:18:13;20.40;95.60
34279;DHT22;20538;51.528;9.942;2023-06-14T09:20:38;20.30;95.70
34279;DHT22;20538;51.528;9.942;2023-06-14T09:23:05;20.50;95.20
34279;DHT22;20538;51.528;9.942;2023-06-14T09:25:32;20.10;95.70
34279;DHT22;20538;51.528;9.942;2023-06-14T09:27:58;20.20;96.00
34279;DHT22;20538;51.528;9.942;2023-06-14T09:30:24;20.30;96.00
34279;DHT22;20538;51.528;9.942;2023-06-14T09:32:50;19.90;94.90
34279;DHT22;20538;51.528;9.942;2023-06-14T09:35:17;20.20;95.00
34279;DHT22;20538;51.528;9.942;2023-06-14T09:37:44;20.10;93.80
34279;DHT22;20538;51.528;9.942;2023-06-14T09:40:10;20.00;94.10
34279;DHT22;20538;51.528;9.942;2023-06-14T09:42:37;19.90;94.40
34279;DHT22;20538;51.528;9.942;2023-06-14T09:45:03;20.60;94.30
34279;DHT22;20538;51.528;9.942;2023-06-14T09:47:30;20.80;93.40
34279;DHT22;20538;51.528;9.942;2023-06-14T09:49:55;20.40;93.70
34279;DHT22;20538;51.528;9.942;2023-06-14T09:52:22;20.40;94.20
34279;DHT22;20538;51.528;9.942;2023-06-14T09:54:49;21.10;93.60
34279;DHT22;20538;51.528;9.942;2023-06-14T09:57:17;21.60;93.20
34279;DHT22;20538;51.528;9.942;2023-06-14T09:59:46;21.80;92.80
34279;DHT22;20538;51.528;9.942;2023-06-14T10:02:36;21.90;91.80
34279;DHT22;20538;51.528;9.942;2023-06-14T10:05:06;21.60;92.60
34279;DHT22;20538;51.528;9.942;2023-06-14T10:08:23;21.30;91.80
34279;DHT22;20538;51.528;9.942;2023-06-14T10:10:28;20.40;92.60
34279;DHT22;20538;51.528;9.942;2023-06-14T10:12:54;20.60;93.00
34279;DHT22;20538;51.528;9.942;2023-06-14T10:15:30;20.80;92.00
34279;DHT22;20538;51.528;9.942;2023-06-14T10:18:24;20.00;92.30
34279;DHT22;20538;51.528;9.942;2023-06-14T10:23:37;20.30;92.30
34279;DHT22;20538;51.528;9.942;2023-06-14T10:26:03;20.40;92.00
34279;DHT22;20538;51.528;9.942;2023-06-14T10:28:28;20.60;92.50
34279;DHT22;20538;51.528;9.942;2023-06-14T10:31:12;21.20;92.00
34279;DHT22;20538;51.528;9.942;2023-06-14T10:33:56;21.00;91.90
34279;DHT22;20538;51.528;9.942;2023-06-14T10:39:07;21.20;90.70
34279;DHT22;20538;51.528;9.942;2023-06-14T10:41:40;21.50;91.20
34279;DHT22;20538;51.528;9.942;2023-06-14T10:46:39;21.40;90.10
34279;DHT22;20538;51.528;9.942;2023-06-14T10:49:04;22.10;90.50
34279;DHT22;20538;51.528;9.942;2023-06-14T10:51:39;21.70;89.60
34279;DHT22;20538;51.528;9.942;2023-06-14T10:54:13;21.90;89.10
34279;DHT22;20538;51.528;9.942;2023-06-14T10:56:52;22.00;89.50
34279;DHT22;20538;51.528;9.942;2023-06-14T10:59:19;22.80;89.50
34279;DHT22;20538;51.528;9.942;2023-06-14T11:01:57;23.00;87.40
34279;DHT22;20538;51.528;9.942;2023-06-14T11:04:47;21.80;87.40
34279;DHT22;20538;51.528;9.942;2023-06-14T11:07:52;21.40;89.00
34279;DHT22;20538;51.528;9.942;2023-06-14T11:10:44;21.80;87.90
34279;DHT22;20538;51.528;9.942;2023-06-14T11:13:11;22.20;88.10
34279;DHT22;20538;51.528;9.942;2023-06-14T11:15:37;21.80;89.00
34279;DHT22;20538;51.528;9.942;2023-06-14T11:18:07;22.20;89.20
34279;DHT22;20538;51.528;9.942;2023-06-14T11:20:35;21.30;88.90
34279;DHT22;20538;51.528;9.942;2023-06-14T11:23:02;22.00;90.00
34279;DHT22;20538;51.528;9.942;2023-06-14T11:25:28;22.10;89.30
34279;DHT22;20538;51.528;9.942;2023-06-14T11:27:54;22.10;90.60
34279;DHT22;20538;51.528;9.942;2023-06-14T11:30:20;21.60;88.00
34279;DHT22;20538;51.528;9.942;2023-06-14T11:32:46;21.70;88.80
34279;DHT22;20538;51.528;9.942;2023-06-14T11:35:12;21.80;88.40
34279;DHT22;20538;51.528;9.942;2023-06-14T11:37:39;22.00;89.10
34279;DHT22;20538;51.528;9.942;2023-06-14T11:40:07;21.70;90.20
34279;DHT22;20538;51.528;9.942;2023-06-14T11:42:35;21.70;89.30
34279;DHT22;20538;51.528;9.942;2023-06-14T11:45:02;22.00;90.10
34279;DHT22;20538;51.528;9.942;2023-06-14T11:47:34;21.60;87.40
34279;DHT22;20538;51.528;9.942;2023-06-14T11:50:01;22.20;88.90
34279;DHT22;20538;51.528;9.942;2023-06-14T11:52:27;22.20;87.70
34279;DHT22;20538;51.528;9.942;2023-06-14T11:54:53;22.30;87.60
34279;DHT22;20538;51.528;9.942;2023-06-14T11:57:19;22.30;87.10
34279;DHT22;20538;51.528;9.942;2023-06-14T11:59:46;21.90;87.50
34279;DHT22;20538;51.528;9.942;2023-06-14T12:02:19;22.40;88.20
34279;DHT22;20538;51.528;9.942;2023-06-14T12:04:47;22.80;88.70
34279;DHT22;20538;51.528;9.942;2023-06-14T12:07:15;22.70;88.20
34279;DHT22;20538;51.528;9.942;2023-06-14T12:10:04;22.50;88.10
34279;DHT22;20538;51.528;9.942;2023-06-14T12:12:38;22.60;87.20
34279;DHT22;20538;51.528;9.942;2023-06-14T12:15:08;22.30;87.00
34279;DHT22;20538;51.528;9.942;2023-06-14T12:17:35;22.30;86.90
34279;DHT22;20538;51.528;9.942;2023-06-14T12:20:19;22.20;87.50
34279;DHT22;20538;51.528;9.942;2023-06-14T12:22:55;22.80;88.90
34279;DHT22;20538;51.528;9.942;2023-06-14T12:25:35;22.90;86.90
34279;DHT22;20538;51.528;9.942;2023-06-14T12:28:06;22.90;85.90
34279;DHT22;20538;51.528;9.942;2023-06-14T12:30:33;22.20;86.00
34279;DHT22;20538;51.528;9.942;2023-06-14T12:32:59;22.40;88.00
34279;DHT22;20538;51.528;9.942;2023-06-14T12:35:26;22.80;90.00
34279;DHT22;20538;51.528;9.942;2023-06-14T12:37:54;22.40;86.90
34279;DHT22;20538;51.528;9.942;2023-06-14T12:40:20;22.10;87.70
34279;DHT22;20538;51.528;9.942;2023-06-14T12:42:46;22.40;88.40
34279;DHT22;20538;51.528;9.942;2023-06-14T12:45:15;22.90;88.70
34279;DHT22;20538;51.528;9.942;2023-06-14T12:47:41;22.40;86.30
34279;DHT22;20538;51.528;9.942;2023-06-14T12:50:07;22.40;87.60
34279;DHT22;20538;51.528;9.942;2023-06-14T12:52:33;22.90;87.20
34279;DHT22;20538;51.528;9.942;2023-06-14T12:55:04;22.20;86.40
34279;DHT22;20538;51.528;9.942;2023-06-14T12:57:30;22.90;87.10
34279;DHT22;20538;51.528;9.942;2023-06-14T12:59:56;22.90;86.20
34279;DHT22;20538;51.528;9.942;2023-06-14T13:02:22;23.10;87.10
34279;DHT22;20538;51.528;9.942;2023-06-14T13:04:49;23.20;86.30
34279;DHT22;20538;51.528;9.942;2023-06-14T13:07:15;22.40;85.80
34279;DHT22;20538;51.528;9.942;2023-06-14T13:09:42;22.90;89.30
34279;DHT22;20538;51.528;9.942;2023-06-14T13:12:11;22.90;86.80
34279;DHT22;20538;51.528;9.942;2023-06-14T13:14:38;21.90;86.50
34279;DHT22;20538;51.528;9.942;2023-06-14T13:17:04;22.50;89.00
34279;DHT22;20538;51.528;9.942;2023-06-14T13:19:31;22.50;87.40
34279;DHT22;20538;51.528;9.942;2023-06-14T13:21:56;23.20;87.60
34279;DHT22;20538;51.528;9.942;2023-06-14T13:24:22;22.80;87.80
34279;DHT22;20538;51.528;9.942;2023-06-14T13:26:48;22.80;87.50
34279;DHT22;20538;51.528;9.942;2023-06-14T13:29:14;23.00;88.00
34279;DHT22;20538;51.528;9.942;2023-06-14T13:31:39;22.80;87.30
34279;DHT22;20538;51.528;9.942;2023-06-14T13:34:05;22.60;87.90
34279;DHT22;20538;51.528;9.942;2023-06-14T13:36:31;22.80;87.90
34279;DHT22;20538;51.528;9.942;2023-06-14T13:38:57;23.20;89.50
34279;DHT22;20538;51.528;9.942;2023-06-14T13:41:25;23.20;87.20
34279;DHT22;20538;51.528;9.942;2023-06-14T13:43:57;22.50;87.60
34279;DHT22;20538;51.528;9.942;2023-06-14T13:46:23;22.80;87.90
34279;DHT22;20538;51.528;9.942;2023-06-14T13:48:48;22.90;87.30
34279;DHT22;20538;51.528;9.942;2023-06-14T13:51:14;22.80;88.70
34279;DHT22;20538;51.528;9.942;2023-06-14T13:53:39;22.50;88.70
34279;DHT22;20538;51.528;9.942;2023-06-14T13:56:05;23.10;90.00
34279;DHT22;20538;51.528;9.942;2023-06-14T13:58:31;22.50;87.60
34279;DHT22;20538;51.528;9.942;2023-06-14T14:00:56;22.50;87.60
34279;DHT22;20538;51.528;9.942;2023-06-14T14:03:22;23.20;90.10
34279;DHT22;20538;51.528;9.942;2023-06-14T14:05:48;24.10;87.00
34279;DHT22;20538;51.528;9.942;2023-06-14T14:08:13;24.50;88.00
34279;DHT22;20538;51.528;9.942;2023-06-14T14:10:39;24.70;85.30
34279;DHT22;20538;51.528;9.942;2023-06-14T14:13:04;24.30;88.10
34279;DHT22;20538;51.528;9.942;2023-06-14T14:15:30;23.70;86.10
34279;DHT22;20538;51.528;9.942;2023-06-14T14:17:56;23.20;86.80
34279;DHT22;20538;51.528;9.942;2023-06-14T14:20:23;23.40;87.30
34279;DHT22;20538;51.528;9.942;2023-06-14T14:22:48;23.20;87.00
34279;DHT22;20538;51.528;9.942;2023-06-14T14:25:14;22.80;87.30
34279;DHT22;20538;51.528;9.942;2023-06-14T14:27:40;22.90;87.90
34279;DHT22;20538;51.528;9.942;2023-06-14T14:30:06;22.50;86.80
34279;DHT22;20538;51.528;9.942;2023-06-14T14:32:31;22.70;87.20
34279;DHT22;20538;51.528;9.942;2023-06-14T14:34:58;23.10;87.50
34279;DHT22;20538;51.528;9.942;2023-06-14T14:37:24;22.70;87.50
34279;DHT22;20538;51.528;9.942;2023-06-14T14:39:50;22.90;88.00
34279;DHT22;20538;51.528;9.942;2023-06-14T14:42:15;23.10;89.10
34279;DHT22;20538;51.528;9.942;2023-06-14T14:44:41;23.50;90.30
34279;DHT22;20538;51.528;9.942;2023-06-14T14:47:07;23.80;88.60
34279;DHT22;20538;51.528;9.942;2023-06-14T14:49:33;23.90;88.50
34279;DHT22;20538;51.528;9.942;2023-06-14T14:51:58;23.80;89.00
34279;DHT22;20538;51.528;9.942;2023-06-14T14:54:24;24.00;88.60
34279;DHT22;20538;51.528;9.942;2023-06-14T14:56:51;24.10;87.70
34279;DHT22;20538;51.528;9.942;2023-06-14T14:59:16;23.10;87.30
34279;DHT22;20538;51.528;9.942;2023-06-14T15:01:42;22.80;87.80
34279;DHT22;20538;51.528;9.942;2023-06-14T15:04:08;23.10;88.20
34279;DHT22;20538;51.528;9.942;2023-06-14T15:06:34;23.40;87.80
34279;DHT22;20538;51.528;9.942;2023-06-14T15:09:05;23.70;89.20
34279;DHT22;20538;51.528;9.942;2023-06-14T15:11:31;23.20;88.80
34279;DHT22;20538;51.528;9.942;2023-06-14T15:13:56;23.60;89.20
34279;DHT22;20538;51.528;9.942;2023-06-14T15:16:22;23.80;90.00
34279;DHT22;20538;51.528;9.942;2023-06-14T15:18:47;24.10;89.50
34279;DHT22;20538;51.528;9.942;2023-06-14T15:21:13;23.60;88.90
34279;DHT22;20538;51.528;9.942;2023-06-14T15:23:39;23.70;90.30
34279;DHT22;20538;51.528;9.942;2023-06-14T15:26:05;23.50;90.00
34279;DHT22;20538;51.528;9.942;2023-06-14T15:28:30;23.50;89.80
34279;DHT22;20538;51.528;9.942;2023-06-14T15:30:58;23.10;90.10
34279;DHT22;20538;51.528;9.942;2023-06-14T15:33:24;22.30;88.30
34279;DHT22;20538;51.528;9.942;2023-06-14T15:35:50;22.40;88.80
34279;DHT22;20538;51.528;9.942;2023-06-14T15:38:16;22.90;88.60
34279;DHT22;20538;51.528;9.942;2023-06-14T15:40:41;22.50;88.40
34279;DHT22;20538;51.528;9.942;2023-06-14T15:43:07;22.40;88.70
34279;DHT22;20538;51.528;9.942;2023-06-14T15:45:35;22.80;89.00
34279;DHT22;20538;51.528;9.942;2023-06-14T15:48:02;23.50;89.60